sensor_id;sensor_type;location;lat;lon;timestamp;pressure;altitude;pressure_sealevel;temperature;humidity
77216;BME280;66210;53.282;9.864;2024-01-27T00:02:21;102178.06;;;3.93;98.98
77216;BME280;66210;53.282;9.864;2024-01-27T00:04:48;102227.16;;;4.25;98.95
77216;BME280;66210;53.282;9.864;2024-01-27T00:07:15;102207.22;;;4.09;98.99
77216;BME280;66210;53.282;9.864;2024-01-27T00:09:42;102233.97;;;4.26;99.29
77216;BME280;66210;53.282;9.864;2024-01-27T00:12:09;102193.00;;;4.09;98.75
77216;BME280;66210;53.282;9.864;2024-01-27T00:14:38;102236.34;;;4.33;98.91
77216;BME280;66210;53.282;9.864;2024-01-27T00:17:05;102199.81;;;4.10;99.06
77216;BME280;66210;53.282;9.864;2024-01-27T00:19:32;102239.16;;;4.27;98.52
77216;BME280;66210;53.282;9.864;2024-01-27T00:22:00;102210.88;;;4.12;99.15
77216;BME280;66210;53.282;9.864;2024-01-27T00:24:26;102206.44;;;4.10;99.26
77216;BME280;66210;53.282;9.864;2024-01-27T00:26:53;102238.41;;;4.28;99.42
77216;BME280;66210;53.282;9.864;2024-01-27T00:29:21;102216.94;;;4.14;98.78
77216;BME280;66210;53.282;9.864;2024-01-27T00:31:48;102248.59;;;4.30;99.42
77216;BME280;66210;53.282;9.864;2024-01-27T00:34:16;102234.88;;;4.26;99.13
77216;BME280;66210;53.282;9.864;2024-01-27T00:36:42;102250.66;;;4.43;99.53
77216;BME280;66210;53.282;9.864;2024-01-27T00:39:15;102234.09;;;4.36;99.72
77216;BME280;66210;53.282;9.864;2024-01-27T00:41:42;102211.19;;;4.24;99.23
77216;BME280;66210;53.282;9.864;2024-01-27T00:44:10;102247.41;;;4.44;99.51
77216;BME280;66210;53.282;9.864;2024-01-27T00:46:37;102219.16;;;4.29;98.92
77216;BME280;66210;53.282;9.864;2024-01-27T00:49:04;102224.03;;;4.27;99.19
77216;BME280;66210;53.282;9.864;2024-01-27T00:51:32;102241.94;;;4.39;99.35
77216;BME280;66210;53.282;9.864;2024-01-27T00:53:58;102259.97;;;4.52;98.82
77216;BME280;66210;53.282;9.864;2024-01-27T00:56:25;102232.91;;;4.32;99.64
77216;BME280;66210;53.282;9.864;2024-01-27T00:58:52;102266.19;;;4.56;99.35
77216;BME280;66210;53.282;9.864;2024-01-27T01:01:19;102229.50;;;4.32;99.32
77216;BME280;66210;53.282;9.864;2024-01-27T01:03:45;102226.56;;;4.27;99.16
77216;BME280;66210;53.282;9.864;2024-01-27T01:06:12;102265.00;;;4.52;99.66
77216;BME280;66210;53.282;9.864;2024-01-27T01:08:39;102254.94;;;4.44;98.82
77216;BME280;66210;53.282;9.864;2024-01-27T01:11:06;102250.06;;;4.45;99.43
77216;BME280;66210;53.282;9.864;2024-01-27T01:13:32;102235.84;;;4.37;98.94
77216;BME280;66210;53.282;9.864;2024-01-27T01:15:59;102223.75;;;4.33;99.56
77216;BME280;66210;53.282;9.864;2024-01-27T01:18:26;102257.75;;;4.55;99.69
77216;BME280;66210;53.282;9.864;2024-01-27T01:20:52;102258.91;;;4.59;99.20
77216;BME280;66210;53.282;9.864;2024-01-27T01:23:19;102259.69;;;4.58;99.27
77216;BME280;66210;53.282;9.864;2024-01-27T01:25:46;102249.19;;;4.53;99.21
77216;BME280;66210;53.282;9.864;2024-01-27T01:28:12;102240.59;;;4.43;99.73
77216;BME280;66210;53.282;9.864;2024-01-27T01:30:39;102265.16;;;4.54;99.74
77216;BME280;66210;53.282;9.864;2024-01-27T01:33:06;102219.28;;;4.30;99.82
77216;BME280;66210;53.282;9.864;2024-01-27T01:35:33;102260.72;;;4.51;99.77
77216;BME280;66210;53.282;9.864;2024-01-27T01:38:00;102245.66;;;4.34;99.11
77216;BME280;66210;53.282;9.864;2024-01-27T01:40:27;102269.59;;;4.48;99.58
77216;BME280;66210;53.282;9.864;2024-01-27T01:42:54;102276.00;;;4.44;99.85
77216;BME280;66210;53.282;9.864;2024-01-27T01:45:20;102283.38;;;4.51;99.58
77216;BME280;66210;53.282;9.864;2024-01-27T01:47:48;102298.91;;;4.56;100.00
77216;BME280;66210;53.282;9.864;2024-01-27T01:50:15;102267.25;;;4.41;99.68
77216;BME280;66210;53.282;9.864;2024-01-27T01:52:42;102276.00;;;4.44;99.85
77216;BME280;66210;53.282;9.864;2024-01-27T01:55:08;102275.22;;;4.45;99.40
77216;BME280;66210;53.282;9.864;2024-01-27T01:57:35;102280.00;;;4.42;99.90
77216;BME280;66210;53.282;9.864;2024-01-27T02:00:02;102291.38;;;4.47;99.47
77216;BME280;66210;53.282;9.864;2024-01-27T02:02:29;102265.94;;;4.27;100.00
77216;BME280;66210;53.282;9.864;2024-01-27T02:04:56;102285.19;;;4.35;99.81
77216;BME280;66210;53.282;9.864;2024-01-27T02:07:22;102315.66;;;4.55;99.50
77216;BME280;66210;53.282;9.864;2024-01-27T02:09:49;102323.94;;;4.54;99.99
77216;BME280;66210;53.282;9.864;2024-01-27T02:12:16;102285.63;;;4.31;99.79
77216;BME280;66210;53.282;9.864;2024-01-27T02:14:43;102327.31;;;4.55;99.95
77216;BME280;66210;53.282;9.864;2024-01-27T02:17:09;102276.28;;;4.30;100.00
77216;BME280;66210;53.282;9.864;2024-01-27T02:19:36;102277.31;;;4.32;99.74
77216;BME280;66210;53.282;9.864;2024-01-27T02:22:03;102306.03;;;4.43;100.00
77216;BME280;66210;53.282;9.864;2024-01-27T02:24:30;102325.41;;;4.52;100.00
77216;BME280;66210;53.282;9.864;2024-01-27T02:26:56;102344.06;;;4.63;99.70
77216;BME280;66210;53.282;9.864;2024-01-27T02:29:23;102333.72;;;4.51;99.88
77216;BME280;66210;53.282;9.864;2024-01-27T02:31:50;102313.44;;;4.41;99.91
77216;BME280;66210;53.282;9.864;2024-01-27T02:34:17;102319.66;;;4.45;99.75
77216;BME280;66210;53.282;9.864;2024-01-27T02:36:43;102327.81;;;4.42;100.00
77216;BME280;66210;53.282;9.864;2024-01-27T02:39:10;102326.44;;;4.37;99.53
77216;BME280;66210;53.282;9.864;2024-01-27T02:41:37;102331.63;;;4.38;99.91
77216;BME280;66210;53.282;9.864;2024-01-27T02:44:05;102334.31;;;4.49;99.30
77216;BME280;66210;53.282;9.864;2024-01-27T02:46:32;102333.72;;;4.43;98.98
77216;BME280;66210;53.282;9.864;2024-01-27T02:48:59;102380.06;;;4.62;98.90
77216;BME280;66210;53.282;9.864;2024-01-27T02:51:25;102354.13;;;4.46;99.53
77216;BME280;66210;53.282;9.864;2024-01-27T02:53:52;102350.28;;;4.41;99.41
77216;BME280;66210;53.282;9.864;2024-01-27T02:56:19;102375.91;;;4.54;99.32
77216;BME280;66210;53.282;9.864;2024-01-27T02:58:46;102367.31;;;4.52;99.41
77216;BME280;66210;53.282;9.864;2024-01-27T03:01:12;102335.19;;;4.32;99.21
77216;BME280;66210;53.282;9.864;2024-01-27T03:03:39;102363.31;;;4.45;99.90
77216;BME280;66210;53.282;9.864;2024-01-27T03:06:06;102334.91;;;4.29;99.21
77216;BME280;66210;53.282;9.864;2024-01-27T03:08:33;102355.63;;;4.35;99.35
77216;BME280;66210;53.282;9.864;2024-01-27T03:11:00;102377.09;;;4.49;99.73
77216;BME280;66210;53.282;9.864;2024-01-27T03:13:26;102347.75;;;4.23;99.48
77216;BME280;66210;53.282;9.864;2024-01-27T03:15:53;102384.78;;;4.42;99.10
77216;BME280;66210;53.282;9.864;2024-01-27T03:18:20;102352.97;;;4.25;99.24
77216;BME280;66210;53.282;9.864;2024-01-27T03:20:47;102353.09;;;4.18;99.34
77216;BME280;66210;53.282;9.864;2024-01-27T03:23:14;102394.09;;;4.34;99.33
77216;BME280;66210;53.282;9.864;2024-01-27T03:25:40;102401.94;;;4.37;99.60
77216;BME280;66210;53.282;9.864;2024-01-27T03:28:07;102374.09;;;4.18;99.50
77216;BME280;66210;53.282;9.864;2024-01-27T03:30:34;102404.00;;;4.24;100.00
77216;BME280;66210;53.282;9.864;2024-01-27T03:33:01;102400.75;;;4.25;100.00
77216;BME280;66210;53.282;9.864;2024-01-27T03:35:28;102374.69;;;4.07;100.00
77216;BME280;66210;53.282;9.864;2024-01-27T03:37:55;102368.34;;;4.10;100.00
77216;BME280;66210;53.282;9.864;2024-01-27T03:40:21;102356.03;;;3.96;100.00
77216;BME280;66210;53.282;9.864;2024-01-27T03:42:48;102392.31;;;4.15;100.00
77216;BME280;66210;53.282;9.864;2024-01-27T03:45:15;102380.75;;;4.09;100.00
77216;BME280;66210;53.282;9.864;2024-01-27T03:47:42;102388.31;;;4.09;100.00
77216;BME280;66210;53.282;9.864;2024-01-27T03:50:09;102371.84;;;3.95;100.00
77216;BME280;66210;53.282;9.864;2024-01-27T03:52:37;102370.94;;;3.94;100.00
77216;BME280;66210;53.282;9.864;2024-01-27T03:55:04;102383.53;;;4.03;100.00
77216;BME280;66210;53.282;9.864;2024-01-27T03:57:32;102384.13;;;4.01;100.00
77216;BME280;66210;53.282;9.864;2024-01-27T03:59:58;102397.59;;;4.01;100.00
77216;BME280;66210;53.282;9.864;2024-01-27T04:02:25;102370.50;;;3.90;100.00
77216;BME280;66210;53.282;9.864;2024-01-27T04:04:52;102429.44;;;4.18;100.00
77216;BME280;66210;53.282;9.864;2024-01-27T04:07:19;102395.06;;;4.01;100.00
77216;BME280;66210;53.282;9.864;2024-01-27T04:09:46;102434.06;;;4.22;100.00
77216;BME280;66210;53.282;9.864;2024-01-27T04:12:13;102409.44;;;4.02;100.00
77216;BME280;66210;53.282;9.864;2024-01-27T04:14:39;102388.13;;;3.99;100.00
77216;BME280;66210;53.282;9.864;2024-01-27T04:17:06;102406.63;;;4.08;100.00
77216;BME280;66210;53.282;9.864;2024-01-27T04:19:33;102435.38;;;4.19;100.00
77216;BME280;66210;53.282;9.864;2024-01-27T04:21:59;102390.59;;;3.90;100.00
77216;BME280;66210;53.282;9.864;2024-01-27T04:24:26;102407.19;;;3.96;100.00
77216;BME280;66210;53.282;9.864;2024-01-27T04:26:53;102389.44;;;3.86;100.00
77216;BME280;66210;53.282;9.864;2024-01-27T04:29:20;102420.38;;;4.03;100.00
77216;BME280;66210;53.282;9.864;2024-01-27T04:31:47;102434.44;;;4.01;100.00
77216;BME280;66210;53.282;9.864;2024-01-27T04:34:14;102424.66;;;3.95;100.00
77216;BME280;66210;53.282;9.864;2024-01-27T04:36:47;102427.31;;;3.96;100.00
77216;BME280;66210;53.282;9.864;2024-01-27T04:39:13;102417.72;;;3.92;100.00
77216;BME280;66210;53.282;9.864;2024-01-27T04:41:43;102445.69;;;4.04;100.00
77216;BME280;66210;53.282;9.864;2024-01-27T04:44:10;102404.06;;;3.82;100.00
77216;BME280;66210;53.282;9.864;2024-01-27T04:46:37;102392.53;;;3.84;100.00
77216;BME280;66210;53.282;9.864;2024-01-27T04:49:04;102432.50;;;3.98;100.00
77216;BME280;66210;53.282;9.864;2024-01-27T04:51:30;102424.50;;;3.93;100.00
77216;BME280;66210;53.282;9.864;2024-01-27T04:53:57;102426.28;;;3.94;100.00
77216;BME280;66210;53.282;9.864;2024-01-27T04:56:24;102405.75;;;3.65;100.00
77216;BME280;66210;53.282;9.864;2024-01-27T04:58:51;102434.81;;;3.79;100.00
77216;BME280;66210;53.282;9.864;2024-01-27T05:01:17;102417.44;;;3.65;100.00
77216;BME280;66210;53.282;9.864;2024-01-27T05:03:44;102435.50;;;3.69;100.00
77216;BME280;66210;53.282;9.864;2024-01-27T05:06:11;102415.88;;;3.49;100.00
77216;BME280;66210;53.282;9.864;2024-01-27T05:08:38;102419.31;;;3.50;100.00
77216;BME280;66210;53.282;9.864;2024-01-27T05:11:06;102453.81;;;3.60;100.00
77216;BME280;66210;53.282;9.864;2024-01-27T05:13:33;102423.84;;;3.37;100.00
77216;BME280;66210;53.282;9.864;2024-01-27T05:15:59;102408.84;;;3.29;100.00
77216;BME280;66210;53.282;9.864;2024-01-27T05:18:26;102428.69;;;3.35;100.00
77216;BME280;66210;53.282;9.864;2024-01-27T05:20:53;102461.88;;;3.48;100.00
77216;BME280;66210;53.282;9.864;2024-01-27T05:23:20;102423.38;;;3.16;100.00
77216;BME280;66210;53.282;9.864;2024-01-27T05:25:46;102453.75;;;3.26;100.00
77216;BME280;66210;53.282;9.864;2024-01-27T05:28:13;102430.22;;;3.17;100.00
77216;BME280;66210;53.282;9.864;2024-01-27T05:30:40;102474.63;;;3.34;100.00
77216;BME280;66210;53.282;9.864;2024-01-27T05:33:06;102454.91;;;3.21;100.00
77216;BME280;66210;53.282;9.864;2024-01-27T05:35:33;102457.72;;;3.24;100.00
77216;BME280;66210;53.282;9.864;2024-01-27T05:38:00;102458.53;;;3.16;100.00
77216;BME280;66210;53.282;9.864;2024-01-27T05:40:27;102458.72;;;3.18;100.00
77216;BME280;66210;53.282;9.864;2024-01-27T05:42:53;102490.22;;;3.23;100.00
77216;BME280;66210;53.282;9.864;2024-01-27T05:45:21;102460.38;;;3.01;100.00
77216;BME280;66210;53.282;9.864;2024-01-27T05:47:49;102474.38;;;3.15;100.00
77216;BME280;66210;53.282;9.864;2024-01-27T05:50:17;102451.63;;;2.98;100.00
77216;BME280;66210;53.282;9.864;2024-01-27T05:52:43;102481.44;;;3.10;100.00
77216;BME280;66210;53.282;9.864;2024-01-27T05:55:10;102436.41;;;2.80;100.00
77216;BME280;66210;53.282;9.864;2024-01-27T05:57:39;102481.63;;;2.96;100.00
77216;BME280;66210;53.282;9.864;2024-01-27T06:00:06;102488.25;;;2.96;100.00
77216;BME280;66210;53.282;9.864;2024-01-27T06:02:36;102499.69;;;3.01;100.00
77216;BME280;66210;53.282;9.864;2024-01-27T06:05:03;102470.53;;;2.78;100.00
77216;BME280;66210;53.282;9.864;2024-01-27T06:07:29;102482.66;;;2.82;100.00
77216;BME280;66210;53.282;9.864;2024-01-27T06:09:56;102481.47;;;2.79;100.00
77216;BME280;66210;53.282;9.864;2024-01-27T06:12:23;102466.00;;;2.67;100.00
77216;BME280;66210;53.282;9.864;2024-01-27T06:14:49;102466.41;;;2.63;100.00
77216;BME280;66210;53.282;9.864;2024-01-27T06:17:16;102485.53;;;2.69;100.00
77216;BME280;66210;53.282;9.864;2024-01-27T06:19:43;102504.16;;;2.72;100.00
77216;BME280;66210;53.282;9.864;2024-01-27T06:22:10;102484.78;;;2.55;100.00
77216;BME280;66210;53.282;9.864;2024-01-27T06:24:43;102497.16;;;2.53;100.00
77216;BME280;66210;53.282;9.864;2024-01-27T06:27:11;102496.84;;;2.50;100.00
77216;BME280;66210;53.282;9.864;2024-01-27T06:29:38;102527.53;;;2.63;100.00
77216;BME280;66210;53.282;9.864;2024-01-27T06:32:06;102493.19;;;2.39;100.00
77216;BME280;66210;53.282;9.864;2024-01-27T06:34:36;102513.59;;;2.42;100.00
77216;BME280;66210;53.282;9.864;2024-01-27T06:37:03;102504.03;;;2.31;100.00
77216;BME280;66210;53.282;9.864;2024-01-27T06:39:31;102486.38;;;2.22;100.00
77216;BME280;66210;53.282;9.864;2024-01-27T06:41:58;102528.53;;;2.34;100.00
77216;BME280;66210;53.282;9.864;2024-01-27T06:44:24;102495.72;;;2.16;100.00
77216;BME280;66210;53.282;9.864;2024-01-27T06:46:51;102526.81;;;2.25;100.00
77216;BME280;66210;53.282;9.864;2024-01-27T06:49:18;102512.97;;;2.13;100.00
77216;BME280;66210;53.282;9.864;2024-01-27T06:51:46;102527.59;;;2.17;100.00
77216;BME280;66210;53.282;9.864;2024-01-27T06:54:12;102501.84;;;1.95;100.00
77216;BME280;66210;53.282;9.864;2024-01-27T06:56:39;102544.09;;;2.15;100.00
77216;BME280;66210;53.282;9.864;2024-01-27T06:59:06;102513.81;;;1.98;100.00
77216;BME280;66210;53.282;9.864;2024-01-27T07:01:32;102541.44;;;2.14;100.00
77216;BME280;66210;53.282;9.864;2024-01-27T07:03:59;102537.75;;;2.03;100.00
77216;BME280;66210;53.282;9.864;2024-01-27T07:06:26;102526.34;;;1.98;100.00
77216;BME280;66210;53.282;9.864;2024-01-27T07:08:53;102507.81;;;1.81;100.00
77216;BME280;66210;53.282;9.864;2024-01-27T07:11:19;102517.47;;;1.85;100.00
77216;BME280;66210;53.282;9.864;2024-01-27T07:13:46;102554.25;;;2.01;100.00
77216;BME280;66210;53.282;9.864;2024-01-27T07:16:13;102549.47;;;1.95;100.00
77216;BME280;66210;53.282;9.864;2024-01-27T07:18:39;102570.16;;;2.01;100.00
77216;BME280;66210;53.282;9.864;2024-01-27T07:21:06;102590.00;;;2.07;100.00
77216;BME280;66210;53.282;9.864;2024-01-27T07:23:35;102554.34;;;1.86;100.00
77216;BME280;66210;53.282;9.864;2024-01-27T07:26:02;102566.16;;;1.87;100.00
77216;BME280;66210;53.282;9.864;2024-01-27T07:28:30;102572.72;;;1.94;100.00
77216;BME280;66210;53.282;9.864;2024-01-27T07:30:56;102566.72;;;1.85;100.00
77216;BME280;66210;53.282;9.864;2024-01-27T07:33:23;102558.50;;;1.79;100.00
77216;BME280;66210;53.282;9.864;2024-01-27T07:35:50;102570.09;;;1.85;100.00
77216;BME280;66210;53.282;9.864;2024-01-27T07:38:16;102591.66;;;1.99;100.00
77216;BME280;66210;53.282;9.864;2024-01-27T07:40:43;102557.28;;;1.75;100.00
77216;BME280;66210;53.282;9.864;2024-01-27T07:43:10;102607.38;;;2.05;100.00
77216;BME280;66210;53.282;9.864;2024-01-27T07:45:36;102608.28;;;2.06;100.00
77216;BME280;66210;53.282;9.864;2024-01-27T07:48:04;102581.19;;;1.87;100.00
77216;BME280;66210;53.282;9.864;2024-01-27T07:50:31;102599.03;;;1.98;100.00
77216;BME280;66210;53.282;9.864;2024-01-27T07:52:57;102589.44;;;1.86;100.00
77216;BME280;66210;53.282;9.864;2024-01-27T07:55:24;102587.50;;;1.84;100.00
77216;BME280;66210;53.282;9.864;2024-01-27T07:57:51;102609.25;;;1.92;100.00
77216;BME280;66210;53.282;9.864;2024-01-27T08:00:17;102618.72;;;2.02;100.00
77216;BME280;66210;53.282;9.864;2024-01-27T08:02:45;102584.63;;;1.81;100.00
77216;BME280;66210;53.282;9.864;2024-01-27T08:05:12;102608.97;;;1.82;100.00
77216;BME280;66210;53.282;9.864;2024-01-27T08:07:38;102574.84;;;1.68;100.00
77216;BME280;66210;53.282;9.864;2024-01-27T08:10:05;102627.31;;;1.97;100.00
77216;BME280;66210;53.282;9.864;2024-01-27T08:12:32;102626.06;;;2.00;100.00
77216;BME280;66210;53.282;9.864;2024-01-27T08:14:59;102588.06;;;1.74;100.00
77216;BME280;66210;53.282;9.864;2024-01-27T08:17:26;102631.94;;;2.01;100.00
77216;BME280;66210;53.282;9.864;2024-01-27T08:19:53;102586.25;;;1.80;100.00
77216;BME280;66210;53.282;9.864;2024-01-27T08:22:23;102595.84;;;1.92;100.00
77216;BME280;66210;53.282;9.864;2024-01-27T08:24:50;102599.22;;;1.92;100.00
77216;BME280;66210;53.282;9.864;2024-01-27T08:27:16;102571.22;;;1.80;100.00
77216;BME280;66210;53.282;9.864;2024-01-27T08:29:44;102593.09;;;1.97;100.00
77216;BME280;66210;53.282;9.864;2024-01-27T08:32:11;102627.19;;;2.18;100.00
77216;BME280;66210;53.282;9.864;2024-01-27T08:34:39;102600.03;;;2.07;100.00
77216;BME280;66210;53.282;9.864;2024-01-27T08:37:15;102600.59;;;2.04;100.00
77216;BME280;66210;53.282;9.864;2024-01-27T08:39:42;102623.50;;;2.31;100.00
77216;BME280;66210;53.282;9.864;2024-01-27T08:42:10;102642.59;;;2.44;100.00
77216;BME280;66210;53.282;9.864;2024-01-27T08:44:40;102635.78;;;2.43;100.00
77216;BME280;66210;53.282;9.864;2024-01-27T08:47:06;102643.09;;;2.49;100.00
77216;BME280;66210;53.282;9.864;2024-01-27T08:49:34;102647.16;;;2.56;100.00
77216;BME280;66210;53.282;9.864;2024-01-27T08:52:02;102650.16;;;2.60;100.00
77216;BME280;66210;53.282;9.864;2024-01-27T08:54:30;102650.16;;;2.60;100.00
77216;BME280;66210;53.282;9.864;2024-01-27T08:56:57;102643.84;;;2.64;100.00
77216;BME280;66210;53.282;9.864;2024-01-27T08:59:23;102630.63;;;2.58;100.00
77216;BME280;66210;53.282;9.864;2024-01-27T09:01:50;102633.81;;;2.64;100.00
77216;BME280;66210;53.282;9.864;2024-01-27T09:04:17;102642.81;;;2.78;100.00
77216;BME280;66210;53.282;9.864;2024-01-27T09:06:44;102660.50;;;2.86;100.00
77216;BME280;66210;53.282;9.864;2024-01-27T09:09:10;102661.72;;;2.90;100.00
77216;BME280;66210;53.282;9.864;2024-01-27T09:11:38;102647.38;;;2.89;100.00
77216;BME280;66210;53.282;9.864;2024-01-27T09:14:05;102642.69;;;2.92;100.00
77216;BME280;66210;53.282;9.864;2024-01-27T09:16:33;102648.44;;;2.91;100.00
77216;BME280;66210;53.282;9.864;2024-01-27T09:19:00;102646.28;;;2.94;100.00
77216;BME280;66210;53.282;9.864;2024-01-27T09:21:27;102650.72;;;2.97;100.00
77216;BME280;66210;53.282;9.864;2024-01-27T09:23:59;102673.91;;;3.10;100.00
77216;BME280;66210;53.282;9.864;2024-01-27T09:26:27;102672.59;;;3.13;100.00
77216;BME280;66210;53.282;9.864;2024-01-27T09:28:54;102670.03;;;3.21;100.00
77216;BME280;66210;53.282;9.864;2024-01-27T09:31:24;102671.06;;;3.23;100.00
77216;BME280;66210;53.282;9.864;2024-01-27T09:33:52;102671.91;;;3.30;100.00
77216;BME280;66210;53.282;9.864;2024-01-27T09:36:20;102662.72;;;3.31;100.00
77216;BME280;66210;53.282;9.864;2024-01-27T09:38:46;102681.22;;;3.47;100.00
77216;BME280;66210;53.282;9.864;2024-01-27T09:41:14;102685.25;;;3.54;100.00
77216;BME280;66210;53.282;9.864;2024-01-27T09:43:44;102690.94;;;3.60;100.00
77216;BME280;66210;53.282;9.864;2024-01-27T09:46:15;102681.94;;;3.62;100.00
77216;BME280;66210;53.282;9.864;2024-01-27T09:48:45;102671.88;;;3.62;100.00
77216;BME280;66210;53.282;9.864;2024-01-27T09:51:12;102674.97;;;3.60;100.00
77216;BME280;66210;53.282;9.864;2024-01-27T09:53:39;102682.31;;;3.74;100.00
77216;BME280;66210;53.282;9.864;2024-01-27T09:56:06;102688.00;;;3.80;100.00
77216;BME280;66210;53.282;9.864;2024-01-27T09:58:33;102683.63;;;3.86;100.00
77216;BME280;66210;53.282;9.864;2024-01-27T10:01:01;102673.41;;;3.85;100.00
77216;BME280;66210;53.282;9.864;2024-01-27T10:03:28;102687.09;;;3.95;100.00
77216;BME280;66210;53.282;9.864;2024-01-27T10:05:56;102681.91;;;3.94;100.00
77216;BME280;66210;53.282;9.864;2024-01-27T10:08:24;102682.72;;;4.02;100.00
77216;BME280;66210;53.282;9.864;2024-01-27T10:10:54;102698.41;;;4.08;100.00
77216;BME280;66210;53.282;9.864;2024-01-27T10:13:22;102693.84;;;4.12;99.27
77216;BME280;66210;53.282;9.864;2024-01-27T10:16:06;102683.72;;;4.20;99.80
77216;BME280;66210;53.282;9.864;2024-01-27T10:18:33;102681.50;;;4.23;99.23
77216;BME280;66210;53.282;9.864;2024-01-27T10:21:20;102676.22;;;4.28;98.99
77216;BME280;66210;53.282;9.864;2024-01-27T10:23:49;102663.47;;;4.27;99.15
77216;BME280;66210;53.282;9.864;2024-01-27T10:26:16;102661.13;;;4.28;98.98
77216;BME280;66210;53.282;9.864;2024-01-27T10:28:42;102679.66;;;4.37;99.01
77216;BME280;66210;53.282;9.864;2024-01-27T10:31:13;102687.81;;;4.44;98.81
77216;BME280;66210;53.282;9.864;2024-01-27T10:33:39;102680.84;;;4.41;98.47
77216;BME280;66210;53.282;9.864;2024-01-27T10:36:07;102672.16;;;4.46;97.95
77216;BME280;66210;53.282;9.864;2024-01-27T10:38:42;102675.03;;;4.58;97.62
77216;BME280;66210;53.282;9.864;2024-01-27T10:41:09;102672.66;;;4.59;97.81
77216;BME280;66210;53.282;9.864;2024-01-27T10:43:39;102664.97;;;4.58;97.36
77216;BME280;66210;53.282;9.864;2024-01-27T10:46:07;102659.06;;;4.66;96.68
77216;BME280;66210;53.282;9.864;2024-01-27T10:48:34;102666.50;;;4.73;96.08
77216;BME280;66210;53.282;9.864;2024-01-27T10:51:09;102669.78;;;4.81;96.84
77216;BME280;66210;53.282;9.864;2024-01-27T10:53:36;102679.28;;;4.84;97.08
77216;BME280;66210;53.282;9.864;2024-01-27T10:56:06;102674.56;;;4.87;95.95
77216;BME280;66210;53.282;9.864;2024-01-27T10:58:36;102678.72;;;4.95;96.08
77216;BME280;66210;53.282;9.864;2024-01-27T11:01:11;102678.13;;;4.97;95.89
77216;BME280;66210;53.282;9.864;2024-01-27T11:03:40;102671.78;;;5.01;95.51
77216;BME280;66210;53.282;9.864;2024-01-27T11:06:08;102683.81;;;5.12;95.65
77216;BME280;66210;53.282;9.864;2024-01-27T11:08:36;102682.50;;;5.16;95.16
77216;BME280;66210;53.282;9.864;2024-01-27T11:11:09;102688.56;;;5.18;95.65
77216;BME280;66210;53.282;9.864;2024-01-27T11:13:36;102681.47;;;5.23;95.04
77216;BME280;66210;53.282;9.864;2024-01-27T11:16:04;102686.06;;;5.18;94.06
77216;BME280;66210;53.282;9.864;2024-01-27T11:18:31;102683.53;;;5.18;94.67
77216;BME280;66210;53.282;9.864;2024-01-27T11:20:59;102702.09;;;5.27;94.32
77216;BME280;66210;53.282;9.864;2024-01-27T11:23:33;102663.34;;;5.09;94.18
77216;BME280;66210;53.282;9.864;2024-01-27T11:26:04;102664.69;;;5.14;93.43
77216;BME280;66210;53.282;9.864;2024-01-27T11:28:31;102662.78;;;5.12;93.75
77216;BME280;66210;53.282;9.864;2024-01-27T11:30:58;102692.03;;;5.36;93.42
77216;BME280;66210;53.282;9.864;2024-01-27T11:33:24;102686.22;;;5.37;92.21
77216;BME280;66210;53.282;9.864;2024-01-27T11:36:05;102706.41;;;5.46;92.65
77216;BME280;66210;53.282;9.864;2024-01-27T11:38:32;102692.59;;;5.42;92.44
77216;BME280;66210;53.282;9.864;2024-01-27T11:41:01;102706.44;;;5.54;92.22
77216;BME280;66210;53.282;9.864;2024-01-27T11:43:28;102691.56;;;5.49;93.38
77216;BME280;66210;53.282;9.864;2024-01-27T11:45:56;102706.88;;;5.59;93.55
77216;BME280;66210;53.282;9.864;2024-01-27T11:48:23;102687.72;;;5.52;92.51
77216;BME280;66210;53.282;9.864;2024-01-27T11:51:06;102699.44;;;5.60;92.62
77216;BME280;66210;53.282;9.864;2024-01-27T11:53:34;102676.00;;;5.53;93.09
77216;BME280;66210;53.282;9.864;2024-01-27T11:56:01;102685.06;;;5.59;92.14
77216;BME280;66210;53.282;9.864;2024-01-27T11:58:28;102673.22;;;5.58;92.09
77216;BME280;66210;53.282;9.864;2024-01-27T12:00:55;102693.84;;;5.72;92.00
77216;BME280;66210;53.282;9.864;2024-01-27T12:03:22;102673.66;;;5.63;91.98
77216;BME280;66210;53.282;9.864;2024-01-27T12:05:49;102700.47;;;5.71;91.50
77216;BME280;66210;53.282;9.864;2024-01-27T12:08:19;102713.69;;;5.86;91.44
77216;BME280;66210;53.282;9.864;2024-01-27T12:10:45;102731.41;;;5.95;91.36
77216;BME280;66210;53.282;9.864;2024-01-27T12:13:12;102730.75;;;5.89;91.01
77216;BME280;66210;53.282;9.864;2024-01-27T12:15:39;102739.69;;;6.02;90.86
77216;BME280;66210;53.282;9.864;2024-01-27T12:18:05;102708.38;;;5.83;90.22
77216;BME280;66210;53.282;9.864;2024-01-27T12:20:33;102731.09;;;6.00;91.20
77216;BME280;66210;53.282;9.864;2024-01-27T12:23:04;102714.44;;;5.94;91.33
77216;BME280;66210;53.282;9.864;2024-01-27T12:25:31;102731.84;;;6.08;91.82
77216;BME280;66210;53.282;9.864;2024-01-27T12:28:05;102740.28;;;6.17;90.89
77216;BME280;66210;53.282;9.864;2024-01-27T12:30:34;102727.84;;;6.10;90.94
77216;BME280;66210;53.282;9.864;2024-01-27T12:33:01;102731.84;;;6.17;91.13
77216;BME280;66210;53.282;9.864;2024-01-27T12:35:28;102734.03;;;6.22;90.47
77216;BME280;66210;53.282;9.864;2024-01-27T12:37:55;102730.91;;;6.25;89.95
77216;BME280;66210;53.282;9.864;2024-01-27T12:40:23;102730.91;;;6.25;89.55
77216;BME280;66210;53.282;9.864;2024-01-27T12:42:50;102728.38;;;6.25;90.03
77216;BME280;66210;53.282;9.864;2024-01-27T12:45:17;102712.53;;;6.17;89.69
77216;BME280;66210;53.282;9.864;2024-01-27T12:47:45;102719.03;;;6.24;89.23
77216;BME280;66210;53.282;9.864;2024-01-27T12:50:12;102682.84;;;6.06;90.21
77216;BME280;66210;53.282;9.864;2024-01-27T12:52:39;102702.44;;;6.17;89.57
77216;BME280;66210;53.282;9.864;2024-01-27T12:55:05;102727.06;;;6.29;88.90
77216;BME280;66210;53.282;9.864;2024-01-27T12:57:32;102712.50;;;6.26;88.68